createdAt,value
2022-10-23T00:01:48.587Z,97086.13
2022-10-23T00:04:21.048Z,97088.84
2022-10-23T00:06:48.929Z,97081.88
2022-10-23T00:09:21.257Z,97089.25
2022-10-23T00:11:50.003Z,97081.47
2022-10-23T00:14:18.939Z,97079.50
2022-10-23T00:16:45.715Z,97077.97
2022-10-23T00:19:14.601Z,97086.66
2022-10-23T00:21:41.419Z,97076.59
2022-10-23T00:26:44.476Z,97078.13
2022-10-23T00:29:11.838Z,97080.50
2022-10-23T00:31:43.197Z,97073.88
2022-10-23T00:34:12.184Z,97065.50
2022-10-23T00:36:44.338Z,97068.53
2022-10-23T00:39:13.933Z,97082.03
2022-10-23T00:41:40.538Z,97073.53
2022-10-23T00:44:29.574Z,97078.53
2022-10-23T00:46:58.952Z,97079.53
2022-10-23T00:49:28.374Z,97075.81
2022-10-23T00:52:05.295Z,97080.16
2022-10-23T00:54:36.107Z,97074.88
2022-10-23T00:57:05.929Z,97086.41
2022-10-23T00:59:33.160Z,97087.13
2022-10-23T01:02:00.613Z,97089.47
2022-10-23T01:04:30.296Z,97076.81
2022-10-23T01:07:09.416Z,97077.00
2022-10-23T01:09:50.474Z,97069.28
2022-10-23T01:12:36.140Z,97070.81
2022-10-23T01:15:24.128Z,97068.44
2022-10-23T01:17:51.083Z,97061.81
2022-10-23T01:20:47.855Z,97060.28
2022-10-23T01:23:32.287Z,97058.34
2022-10-23T01:26:21.762Z,97058.81
2022-10-23T01:29:08.993Z,97059.41
2022-10-23T01:31:47.857Z,97050.25
2022-10-23T01:34:28.220Z,97050.72
2022-10-23T01:36:57.038Z,97031.47
2022-10-23T01:39:37.637Z,97051.72
2022-10-23T01:42:13.021Z,97047.00
2022-10-23T01:44:48.032Z,97046.00
2022-10-23T01:47:18.102Z,97053.38
2022-10-23T01:49:46.786Z,97039.13
2022-10-23T01:52:16.589Z,97040.72
2022-10-23T01:54:46.416Z,97040.19
2022-10-23T01:57:18.684Z,97039.59
2022-10-23T01:59:53.086Z,97038.88
2022-10-23T02:02:27.053Z,97031.66
2022-10-23T02:05:03.368Z,97028.22
2022-10-23T02:07:30.392Z,97021.09
2022-10-23T02:09:59.110Z,97018.75
2022-10-23T02:12:37.329Z,97029.38
2022-10-23T02:15:09.251Z,97029.44
2022-10-23T02:17:57.336Z,97021.56
2022-10-23T02:20:36.139Z,97021.09
2022-10-23T02:23:31.123Z,97016.00
2022-10-23T02:26:13.395Z,97017.13
2022-10-23T02:28:45.854Z,97022.75
2022-10-23T02:31:19.818Z,97018.16
2022-10-23T02:33:49.270Z,97015.78
2022-10-23T02:36:19.185Z,97000.50
2022-10-23T02:38:46.555Z,97005.47
2022-10-23T02:41:28.333Z,96987.63
2022-10-23T02:44:22.066Z,96990.47
2022-10-23T02:47:06.632Z,96993.47
2022-10-23T02:49:57.047Z,96983.09
2022-10-23T02:52:32.640Z,96984.22
2022-10-23T02:55:21.343Z,96991.34
2022-10-23T02:58:21.672Z,96997.44
2022-10-23T03:00:59.827Z,96989.63
2022-10-23T03:03:31.791Z,96981.56
2022-10-23T03:06:00.956Z,96978.25
2022-10-23T03:08:27.526Z,96981.56
2022-10-23T03:10:54.061Z,96969.78
2022-10-23T03:13:20.818Z,96967.41
2022-10-23T03:15:47.374Z,96962.75
2022-10-23T03:18:18.619Z,96958.28
2022-10-23T03:20:45.181Z,96956.84
2022-10-23T03:23:15.734Z,96962.22
2022-10-23T03:25:42.238Z,96953.75
2022-10-23T03:28:08.795Z,96941.56
2022-10-23T03:30:35.401Z,96928.75
2022-10-23T03:33:04.333Z,96939.66
2022-10-23T03:35:35.825Z,96953.00
2022-10-23T03:38:04.575Z,96956.75
2022-10-23T03:40:33.569Z,96956.34
2022-10-23T03:43:04.746Z,96956.00
2022-10-23T03:45:33.632Z,96968.16
2022-10-23T03:48:00.195Z,96980.72
2022-10-23T03:50:26.691Z,96967.25
2022-10-23T03:52:55.530Z,96950.31
2022-10-23T03:55:25.721Z,96961.19
2022-10-23T03:57:52.557Z,96969.63
2022-10-23T04:00:21.555Z,96957.22
2022-10-23T04:02:50.494Z,96968.25
2022-10-23T04:05:19.539Z,96968.63
2022-10-23T04:07:46.103Z,96960.38
2022-10-23T04:10:12.881Z,96950.44
2022-10-23T04:12:39.596Z,96955.88
2022-10-23T04:15:07.079Z,96939.75
2022-10-23T04:17:33.598Z,96935.59
2022-10-23T04:20:02.755Z,96934.91
2022-10-23T04:22:31.654Z,96942.38
2022-10-23T04:24:58.507Z,96945.28
2022-10-23T04:27:27.272Z,96939.75
2022-10-23T04:29:58.336Z,96942.94
2022-10-23T04:32:28.032Z,96950.25
2022-10-23T04:34:54.655Z,96953.44
2022-10-23T04:37:21.203Z,96940.00
2022-10-23T04:39:48.132Z,96951.97
2022-10-23T04:42:19.506Z,96950.84
2022-10-23T04:44:46.126Z,96954.00
2022-10-23T04:47:12.633Z,96963.94
2022-10-23T04:49:39.286Z,96947.13
2022-10-23T04:52:05.887Z,96963.00
2022-10-23T04:54:41.613Z,96977.88
2022-10-23T04:57:08.162Z,96925.13
2022-10-23T04:59:34.831Z,96967.09
2022-10-23T05:02:01.366Z,96962.75
2022-10-23T05:04:28.110Z,96928.13
2022-10-23T05:06:59.964Z,96971.75
2022-10-23T05:09:28.736Z,96966.75
2022-10-23T05:11:57.493Z,96948.66
2022-10-23T05:14:24.020Z,96965.47
2022-10-23T05:17:07.246Z,96953.91
2022-10-23T05:19:40.693Z,96963.00
2022-10-23T05:22:07.664Z,96962.41
2022-10-23T05:24:36.721Z,96967.25
2022-10-23T05:27:03.309Z,96959.19
2022-10-23T05:29:32.193Z,96980.25
2022-10-23T05:32:03.209Z,96964.53
2022-10-23T05:34:33.041Z,96988.22
2022-10-23T05:36:59.624Z,96976.44
2022-10-23T05:39:28.830Z,96971.25
2022-10-23T05:42:00.322Z,96986.03
2022-10-23T05:44:26.962Z,96965.13
2022-10-23T05:46:53.486Z,96974.88
2022-10-23T05:49:22.329Z,96951.91
2022-10-23T05:51:48.863Z,96971.34
2022-10-23T05:54:17.958Z,96962.25
2022-10-23T05:56:44.501Z,96974.06
2022-10-23T05:59:11.068Z,96961.75
2022-10-23T06:01:37.750Z,96959.28
2022-10-23T06:04:07.740Z,96959.09
2022-10-23T06:06:36.820Z,96967.94
2022-10-23T06:09:04.225Z,96986.81
2022-10-23T06:11:30.804Z,96973.22
2022-10-23T06:14:01.005Z,96989.94
2022-10-23T06:16:30.084Z,96975.84
2022-10-23T06:18:57.491Z,96984.50
2022-10-23T06:21:27.107Z,96964.81
2022-10-23T06:23:57.288Z,96995.66
2022-10-23T06:26:23.877Z,96995.22
2022-10-23T06:28:53.424Z,96995.38
2022-10-23T06:31:20.500Z,96996.06
2022-10-23T06:33:47.002Z,96992.59
2022-10-23T06:36:16.017Z,96982.47
2022-10-23T06:38:42.590Z,96993.34
2022-10-23T06:41:22.797Z,96987.16
2022-10-23T06:43:55.272Z,97005.41
2022-10-23T06:46:22.347Z,96989.69
2022-10-23T06:48:53.758Z,97003.53
2022-10-23T06:51:22.706Z,96992.66
2022-10-23T06:53:49.647Z,96994.97
2022-10-23T06:56:18.645Z,96985.19
2022-10-23T06:58:47.866Z,96997.94
2022-10-23T07:01:16.372Z,96996.00
2022-10-23T07:03:46.208Z,97006.00
2022-10-23T07:06:12.793Z,96995.66
2022-10-23T07:08:39.369Z,96998.97
2022-10-23T07:11:13.152Z,97005.00
2022-10-23T07:13:40.517Z,97003.28
2022-10-23T07:16:20.938Z,97012.66
2022-10-23T07:18:49.156Z,97017.22
2022-10-23T07:21:16.187Z,97000.56
2022-10-23T07:23:45.088Z,97018.09
2022-10-23T07:26:15.315Z,97018.75
2022-10-23T07:28:48.844Z,97005.69
2022-10-23T07:31:18.381Z,96995.03
2022-10-23T07:33:47.180Z,96986.63
2022-10-23T07:36:14.199Z,96992.78
2022-10-23T07:38:43.223Z,97004.88
2022-10-23T07:41:12.296Z,96992.97
2022-10-23T07:43:39.673Z,96997.50
2022-10-23T07:46:08.284Z,96994.06
2022-10-23T07:48:37.951Z,96984.81
2022-10-23T07:51:08.582Z,96989.09
2022-10-23T07:53:38.164Z,96984.50
2022-10-23T07:56:17.602Z,97007.88
2022-10-23T07:58:44.780Z,96997.34
2022-10-23T08:01:27.912Z,96992.41
2022-10-23T08:03:56.772Z,96979.25
2022-10-23T08:06:23.533Z,96974.09
2022-10-23T08:08:52.367Z,96980.88
2022-10-23T08:11:25.854Z,96982.66
2022-10-23T08:13:54.287Z,96980.53
2022-10-23T08:16:27.389Z,96981.88
2022-10-23T08:18:58.734Z,96984.94
2022-10-23T08:21:25.292Z,96963.13
2022-10-23T08:23:56.583Z,96969.22
2022-10-23T08:26:24.690Z,96987.31
2022-10-23T08:28:55.198Z,96979.00
2022-10-23T08:31:22.831Z,96967.47
2022-10-23T08:36:33.498Z,96963.97
2022-10-23T08:39:02.492Z,96958.38
2022-10-23T08:41:49.982Z,96967.69
2022-10-23T08:44:55.217Z,96969.22
2022-10-23T08:47:34.075Z,96975.44
2022-10-23T08:50:06.261Z,96954.69
2022-10-23T08:53:11.545Z,96943.47
2022-10-23T08:55:45.953Z,96944.09
2022-10-23T08:58:29.657Z,96963.13
2022-10-23T09:00:56.260Z,96976.44
2022-10-23T09:03:25.140Z,96960.47
2022-10-23T09:06:13.766Z,96966.47
2022-10-23T09:08:54.229Z,96953.91
2022-10-23T09:11:56.853Z,96946.41
2022-10-23T09:14:53.873Z,96957.25
2022-10-23T09:17:27.055Z,96936.34
2022-10-23T09:20:16.408Z,96933.97
2022-10-23T09:22:46.138Z,96938.56
2022-10-23T09:25:25.570Z,96918.00
2022-10-23T09:27:59.107Z,96932.28
2022-10-23T09:30:40.698Z,96910.25
2022-10-23T09:33:28.188Z,96926.72
2022-10-23T09:36:03.189Z,96908.72
2022-10-23T09:38:39.320Z,96916.13
2022-10-23T09:41:17.762Z,96897.69
2022-10-23T09:43:44.431Z,96909.03
2022-10-23T09:46:12.004Z,96891.84
2022-10-23T09:48:39.985Z,96918.47
2022-10-23T09:51:21.313Z,96903.53
2022-10-23T09:53:57.949Z,96931.50
2022-10-23T09:56:34.988Z,96900.31
2022-10-23T09:59:16.011Z,96920.66
2022-10-23T10:01:53.028Z,96908.72
2022-10-23T10:04:32.770Z,96918.78
2022-10-23T10:07:03.639Z,96891.22
2022-10-23T10:09:30.299Z,96913.13
2022-10-23T10:12:16.737Z,96901.41
2022-10-23T10:14:58.187Z,96901.66
2022-10-23T10:17:43.298Z,96918.69
2022-10-23T10:20:28.615Z,96932.25
2022-10-23T10:23:05.894Z,96926.09
2022-10-23T10:25:40.327Z,96924.88
2022-10-23T10:28:27.565Z,96939.19
2022-10-23T10:31:14.305Z,96940.59
2022-10-23T10:33:43.547Z,96930.78
2022-10-23T10:36:28.307Z,96924.94
2022-10-23T10:39:11.773Z,96917.31
2022-10-23T10:42:02.292Z,96913.19
2022-10-23T10:44:46.952Z,96915.34
2022-10-23T10:47:27.974Z,96907.19
2022-10-23T10:49:54.473Z,96912.59
2022-10-23T10:52:30.841Z,96914.94
2022-10-23T10:55:11.746Z,96918.41
2022-10-23T10:57:55.842Z,96903.09
2022-10-23T11:00:32.405Z,96901.63
2022-10-23T11:03:09.433Z,96894.06
2022-10-23T11:05:44.499Z,96890.44
2022-10-23T11:08:14.218Z,96880.66
2022-10-23T11:10:46.503Z,96870.91
2022-10-23T11:13:42.372Z,96876.81
2022-10-23T11:16:14.718Z,96856.59
2022-10-23T11:18:44.539Z,96864.22
2022-10-23T11:21:35.688Z,96863.97
2022-10-23T11:24:35.471Z,96860.81
2022-10-23T11:27:17.344Z,96870.53
2022-10-23T11:29:43.834Z,96867.91
2022-10-23T11:35:20.369Z,96850.22
2022-10-23T11:37:59.080Z,96853.69
2022-10-23T11:40:26.235Z,96844.66
2022-10-23T11:42:55.430Z,96841.56
2022-10-23T11:45:31.499Z,96844.63
2022-10-23T11:47:59.673Z,96836.72
2022-10-23T11:50:30.195Z,96847.50
2022-10-23T11:53:31.436Z,96858.75
2022-10-23T11:56:06.806Z,96876.22
2022-10-23T11:58:56.715Z,96849.94
2022-10-23T12:01:26.241Z,96849.19
2022-10-23T12:03:57.877Z,96825.91
2022-10-23T12:06:34.349Z,96822.63
2022-10-23T12:09:06.845Z,96807.72
2022-10-23T12:11:47.002Z,96798.75
2022-10-23T12:14:47.154Z,96805.13
2022-10-23T12:17:23.159Z,96804.53
2022-10-23T12:20:12.643Z,96793.28
2022-10-23T12:23:04.214Z,96799.16
2022-10-23T12:26:17.948Z,96799.31
2022-10-23T12:29:19.397Z,96800.22
2022-10-23T12:31:59.182Z,96795.25
2022-10-23T12:34:42.299Z,96751.00
2022-10-23T12:37:30.727Z,96771.22
2022-10-23T12:39:59.554Z,96758.00
2022-10-23T12:42:28.374Z,96747.97
2022-10-23T12:45:19.842Z,96751.94
2022-10-23T12:47:48.370Z,96725.78
2022-10-23T12:50:26.988Z,96725.16
2022-10-23T12:53:01.798Z,96736.72
2022-10-23T12:55:33.602Z,96738.53
2022-10-23T12:58:18.450Z,96749.31
2022-10-23T13:00:57.104Z,96761.19
2022-10-23T13:03:26.493Z,96765.75
2022-10-23T13:05:55.769Z,96758.47
2022-10-23T13:08:23.365Z,96757.41
2022-10-23T13:10:51.095Z,96762.88
2022-10-23T13:13:23.305Z,96744.34
2022-10-23T13:15:50.631Z,96736.41
2022-10-23T13:18:19.446Z,96755.34
2022-10-23T13:20:51.985Z,96739.59
2022-10-23T13:23:27.975Z,96768.16
2022-10-23T13:26:21.911Z,96719.53
2022-10-23T13:28:51.246Z,96749.13
2022-10-23T13:31:17.719Z,96745.72
2022-10-23T13:33:52.695Z,96761.09
2022-10-23T13:36:22.962Z,96720.56
2022-10-23T13:39:13.646Z,96736.13
2022-10-23T13:41:49.109Z,96714.97
2022-10-23T13:44:20.055Z,96726.69
2022-10-23T13:46:48.461Z,96754.13
2022-10-23T13:49:18.285Z,96746.97
2022-10-23T13:51:49.829Z,96730.41
2022-10-23T13:54:30.288Z,96717.25
2022-10-23T13:56:57.305Z,96719.75
2022-10-23T13:59:24.168Z,96723.81
2022-10-23T14:01:54.355Z,96684.72
2022-10-23T14:04:21.319Z,96673.63
2022-10-23T14:06:47.899Z,96670.66
2022-10-23T14:09:16.813Z,96659.81
2022-10-23T14:11:45.772Z,96666.72
2022-10-23T14:14:12.463Z,96661.91
2022-10-23T14:16:41.331Z,96670.88
2022-10-23T14:19:10.813Z,96674.41
2022-10-23T14:21:38.669Z,96687.75
2022-10-23T14:24:05.439Z,96696.38
2022-10-23T14:26:32.846Z,96700.94
2022-10-23T14:29:02.433Z,96713.69
2022-10-23T14:31:34.137Z,96701.09
2022-10-23T14:34:01.760Z,96704.75
2022-10-23T14:36:38.522Z,96688.94
2022-10-23T14:39:16.179Z,96701.09
2022-10-23T14:41:47.925Z,96713.41
2022-10-23T14:44:14.637Z,96740.47
2022-10-23T14:46:41.526Z,96721.66
2022-10-23T14:49:08.006Z,96707.34
2022-10-23T14:51:35.341Z,96753.00
2022-10-23T14:54:05.009Z,96783.41
2022-10-23T14:56:39.446Z,96789.78
2022-10-23T14:59:10.845Z,96768.66
2022-10-23T15:01:45.429Z,96753.78
2022-10-23T15:04:15.281Z,96735.66
2022-10-23T15:06:45.099Z,96738.41
2022-10-23T15:09:14.534Z,96733.69
2022-10-23T15:11:45.946Z,96712.72
2022-10-23T15:14:13.218Z,96706.78
2022-10-23T15:16:42.114Z,96705.56
2022-10-23T15:19:18.430Z,96696.56
2022-10-23T15:21:48.922Z,96668.84
2022-10-23T15:24:16.874Z,96660.03
2022-10-23T15:26:44.036Z,96643.41
2022-10-23T15:29:14.783Z,96643.56
2022-10-23T15:31:45.942Z,96648.28
2022-10-23T15:34:21.644Z,96647.06
2022-10-23T15:36:51.851Z,96636.59
2022-10-23T15:39:24.701Z,96634.78
2022-10-23T15:41:58.378Z,96633.47
2022-10-23T15:44:26.818Z,96630.44
2022-10-23T15:46:53.757Z,96623.69
2022-10-23T15:49:20.435Z,96633.09
2022-10-23T15:51:47.686Z,96630.47
2022-10-23T15:54:17.190Z,96617.59
2022-10-23T15:56:45.106Z,96617.47
2022-10-23T15:59:12.525Z,96618.97
2022-10-23T16:01:39.310Z,96617.03
2022-10-23T16:04:06.043Z,96633.44
2022-10-23T16:06:32.873Z,96644.50
2022-10-23T16:08:59.976Z,96642.72
2022-10-23T16:11:31.357Z,96646.22
2022-10-23T16:13:59.539Z,96641.34
2022-10-23T16:16:30.362Z,96638.31
2022-10-23T16:19:00.457Z,96643.63
2022-10-23T16:21:32.596Z,96652.88
2022-10-23T16:24:06.742Z,96651.06
2022-10-23T16:26:34.343Z,96653.94
2022-10-23T16:29:03.896Z,96649.25
2022-10-23T16:31:30.601Z,96663.22
2022-10-23T16:33:58.986Z,96680.06
2022-10-23T16:36:26.201Z,96670.34
2022-10-23T16:38:55.075Z,96671.72
2022-10-23T16:41:21.636Z,96673.69
2022-10-23T16:43:48.305Z,96692.06
2022-10-23T16:46:18.118Z,96698.09
2022-10-23T16:48:44.705Z,96693.84
2022-10-23T16:51:19.458Z,96704.47
2022-10-23T16:53:49.214Z,96704.47
2022-10-23T16:56:21.203Z,96701.44
2022-10-23T16:58:51.050Z,96694.59
2022-10-23T17:01:22.910Z,96700.06
2022-10-23T17:03:51.737Z,96707.03
2022-10-23T17:06:34.925Z,96712.63
2022-10-23T17:09:05.235Z,96730.56
2022-10-23T17:11:34.813Z,96722.81
2022-10-23T17:14:07.540Z,96715.25
2022-10-23T17:16:46.117Z,96705.66
2022-10-23T17:19:33.044Z,96702.78
2022-10-23T17:22:10.496Z,96699.59
2022-10-23T17:24:40.701Z,96716.31
2022-10-23T17:27:09.937Z,96713.28
2022-10-23T17:29:38.993Z,96735.88
2022-10-23T17:32:12.827Z,96740.13
2022-10-23T17:34:39.445Z,96732.06
2022-10-23T17:37:06.029Z,96739.97
2022-10-23T17:39:32.596Z,96743.00
2022-10-23T17:42:04.870Z,96741.03
2022-10-23T17:44:36.676Z,96748.16
2022-10-23T17:47:03.283Z,96757.44
2022-10-23T17:49:29.862Z,96745.88
2022-10-23T17:51:59.242Z,96774.25
2022-10-23T17:54:26.983Z,96782.91
2022-10-23T17:56:53.558Z,96783.34
2022-10-23T17:59:23.028Z,96792.31
2022-10-23T18:01:52.255Z,96780.31
2022-10-23T18:04:20.565Z,96789.28
2022-10-23T18:06:55.400Z,96795.94
2022-10-23T18:09:22.618Z,96809.72
2022-10-23T18:11:52.843Z,96828.41
2022-10-23T18:14:22.367Z,96831.13
2022-10-23T18:16:52.587Z,96826.56
2022-10-23T18:19:21.789Z,96851.91
2022-10-23T18:21:51.144Z,96874.53
2022-10-23T18:24:20.458Z,96879.53
2022-10-23T18:26:50.323Z,96884.25
2022-10-23T18:29:19.229Z,96908.50
2022-10-23T18:31:50.865Z,96904.25
2022-10-23T18:34:20.982Z,96894.22
2022-10-23T18:36:53.851Z,96885.88
2022-10-23T18:39:22.857Z,96882.22
2022-10-23T18:41:53.127Z,96887.84
2022-10-23T18:44:23.107Z,96883.59
2022-10-23T18:46:52.217Z,96866.69
2022-10-23T18:49:22.491Z,96882.84
2022-10-23T18:51:52.731Z,96891.78
2022-10-23T18:54:21.034Z,96893.47
2022-10-23T18:56:50.526Z,96907.56
2022-10-23T18:59:21.436Z,96898.94
2022-10-23T19:01:51.483Z,96909.09
2022-10-23T19:04:20.508Z,96903.63
2022-10-23T19:06:48.810Z,96902.50
2022-10-23T19:09:16.293Z,96912.25
2022-10-23T19:11:47.605Z,96922.84
2022-10-23T19:14:17.071Z,96913.56
2022-10-23T19:17:04.560Z,96926.34
2022-10-23T19:19:40.675Z,96936.50
2022-10-23T19:22:08.892Z,96933.44
2022-10-23T19:24:43.951Z,96931.03
2022-10-23T19:27:11.157Z,96948.63
2022-10-23T19:29:45.115Z,96945.34
2022-10-23T19:32:12.258Z,96948.72
2022-10-23T19:34:40.984Z,96952.19
2022-10-23T19:37:10.658Z,96943.28
2022-10-23T19:39:37.358Z,96959.19
2022-10-23T19:42:09.010Z,96958.53
2022-10-23T19:44:35.616Z,96958.09
2022-10-23T19:47:04.674Z,96954.31
2022-10-23T19:49:31.281Z,96973.94
2022-10-23T19:51:58.175Z,96954.50
2022-10-23T19:54:27.190Z,96976.00
2022-10-23T19:56:57.181Z,96984.84
2022-10-23T19:59:24.022Z,96985.94
2022-10-23T20:01:52.883Z,96968.59
2022-10-23T20:04:19.649Z,96976.66
2022-10-23T20:06:48.868Z,96986.06
2022-10-23T20:09:18.011Z,96986.81
2022-10-23T20:11:45.312Z,96984.97
2022-10-23T20:14:12.765Z,96995.78
2022-10-23T20:16:46.361Z,97005.63
2022-10-23T20:21:49.245Z,96992.28
2022-10-23T20:24:20.245Z,97005.19
2022-10-23T20:26:53.974Z,97015.47
2022-10-23T20:29:23.941Z,97012.72
2022-10-23T20:31:55.256Z,97005.13
2022-10-23T20:34:24.725Z,97025.84
2022-10-23T20:36:51.913Z,97056.13
2022-10-23T20:39:29.859Z,96980.19
2022-10-23T20:42:00.347Z,96989.22
2022-10-23T20:44:27.274Z,96997.09
2022-10-23T20:46:56.646Z,96989.91
2022-10-23T20:49:23.551Z,96977.56
2022-10-23T20:51:57.233Z,96980.09
2022-10-23T20:54:25.871Z,96956.81
2022-10-23T20:56:52.542Z,96943.59
2022-10-23T20:59:19.735Z,96938.13
2022-10-23T21:01:53.445Z,96912.63
2022-10-23T21:04:22.670Z,96928.41
2022-10-23T21:07:10.679Z,96916.44
2022-10-23T21:09:39.226Z,96921.06
2022-10-23T21:12:06.690Z,96916.81
2022-10-23T21:14:33.803Z,96910.72
2022-10-23T21:17:00.826Z,96901.75
2022-10-23T21:19:32.169Z,96879.16
2022-10-23T21:21:58.709Z,96881.28
2022-10-23T21:24:25.300Z,96892.38
2022-10-23T21:26:52.271Z,96882.91
2022-10-23T21:29:21.083Z,96888.22
2022-10-23T21:31:56.104Z,96897.66
2022-10-23T21:34:27.244Z,96890.00
2022-10-23T21:37:14.114Z,96905.19
2022-10-23T21:39:42.840Z,96883.16
2022-10-23T21:42:12.219Z,96891.59
2022-10-23T21:44:43.613Z,96891.69
2022-10-23T21:47:15.127Z,96885.50
2022-10-23T21:49:46.889Z,96883.34
2022-10-23T21:52:19.014Z,96881.38
2022-10-23T21:54:52.245Z,96881.47
2022-10-23T21:57:19.538Z,96885.31
2022-10-23T21:59:48.387Z,96872.09
2022-10-23T22:02:17.276Z,96879.53
2022-10-23T22:04:46.043Z,96895.88
2022-10-23T22:07:15.400Z,96888.59
2022-10-23T22:09:44.539Z,96915.31
2022-10-23T22:12:13.284Z,96909.53
2022-10-23T22:14:42.607Z,96924.38
2022-10-23T22:17:11.372Z,96923.50
2022-10-23T22:19:40.924Z,96927.88
2022-10-23T22:22:10.007Z,96940.53
2022-10-23T22:24:39.526Z,96908.59
2022-10-23T22:27:06.168Z,96917.94
2022-10-23T22:29:32.727Z,96917.94
2022-10-23T22:32:01.491Z,96894.00
2022-10-23T22:37:16.706Z,96899.16
2022-10-23T22:39:43.787Z,96896.44
2022-10-23T22:42:10.361Z,96878.06
2022-10-23T22:44:36.946Z,96881.56
2022-10-23T22:47:03.641Z,96897.63
2022-10-23T22:49:30.180Z,96862.97
2022-10-23T22:51:59.172Z,96862.38
2022-10-23T22:54:31.384Z,96841.25
2022-10-23T22:57:02.785Z,96861.63
2022-10-23T22:59:29.454Z,96859.91
2022-10-23T23:01:58.841Z,96853.56
2022-10-23T23:04:37.854Z,96839.63
2022-10-23T23:07:11.707Z,96833.19
2022-10-23T23:09:40.321Z,96840.22
2022-10-23T23:12:08.680Z,96846.72
2022-10-23T23:14:35.188Z,96859.59
2022-10-23T23:17:02.376Z,96874.00
2022-10-23T23:19:31.186Z,96876.72
2022-10-23T23:22:01.458Z,96864.28
2022-10-23T23:24:28.138Z,96860.09
2022-10-23T23:26:54.672Z,96867.06
2022-10-23T23:29:21.779Z,96867.06
2022-10-23T23:31:48.381Z,96852.06
2022-10-23T23:34:14.876Z,96855.88
2022-10-23T23:36:41.408Z,96858.72
2022-10-23T23:39:10.560Z,96867.34
2022-10-23T23:41:42.244Z,96859.91
2022-10-23T23:44:10.090Z,96857.63
2022-10-23T23:46:41.224Z,96842.91
2022-10-23T23:49:08.132Z,96859.16
2022-10-23T23:51:35.199Z,96853.94
2022-10-23T23:54:04.714Z,96866.38
2022-10-23T23:56:33.874Z,96853.28
2022-10-23T23:59:00.513Z,96875.44
